Airfield :
LOGIN :

Register | Disclaimer

   EN    FR    IT 

 










Legend :    VFR   Marginal VFR   IFR   Intensive IFR   Very Intensive IFR
Visi :
Ceiling :
>= 8 km
>= 3000ft
5 to 8 km
1000 to 3000 ft
1500m to 5 km
500 to 1000 ft
800 to 1500m
200 to 500 ft
< 800m
< 200 ft
Symbols :   Thunderstorms  Fog  Heavy snow  Heavy precipitations  Wind > 20 kt
SIGMETs :     Misc.  Thunderstorms  Icing  Turbulence  Mountain Waves  Volcanic Ashes







- Airport Elevation : 13 ft
- IATA code : OST


EBOS - Oostend bruges Int.

CURRENT METAR :
  • 281620Z 23016KT 9000 -RA FEW014 BKN049 16/14 Q1013 TEMPO 20015G25KT

EXPIRED METARs :
  • 281550Z 23015KT 9999 -RA FEW025 17/13 Q1013 TEMPO 200 15KT MAX 25
  • 281520Z 23016G26KT 9999 -RA FEW030 18/13 Q1013 NOSIG
  • 281450Z 23016G26KT 9999 -RA SCT032 19/13 Q1012 NOSIG
  • 281420Z 23017G27KT 9999 SCT032 20/13 Q1012 NOSIG
  • 281350Z 23020KT 9999 SCT034 19/12 Q1012 NOSIG

TAF TAF EBOS
Valid from the 28 at 06:00 until the 29 at 12:00 UTC


280500Z 2806/2912 23012KT 9999 SCT020
BECMG 2807/2809 23017G27KT
BECMG 2817/2819 20012KT
PROB40
TEMPO 2820/2824 4000 RA
BECMG 2900/2902 23016G30KT
PROB40
TEMPO 2904/2909 BKN012
BECMG 2909/2912 23010KT
No reported NOTAMs for that airfield.



MET'MAP, your aeronautical weather chart ! - Copyright ORBIFLY December 2007 - Disclaimer

ORBIFLY MET'MAP TEAM :

Programming & Development : Alexandra Zaïnal
Concept & Development : Baudouin d'Aumeries
Co-Development & Prog : Marc-Olivier Méhu
Technical & hardware support : Manuel Goepfert

Contact : metmap@orbifly.com




SOURCES & CREDITS :

   NOAA